Time;durP1;ratioP1;P1;durP2;ratioP2;P2;SDS_P1;SDS_P2;PMS_P1;PMS_P2;Temp;Humidity;BMP_temperature;BMP_pressure;BME280_temperature;BME280_humidity;BME280_pressure;Samples;Min_cycle;Max_cycle;Signal;HPM_P1;HPM_P2
2022/12/26 00:00:10;;;;;;;33.40;15.77;;;8.60;99.90;;;;;;5253799;28;20179;-54
2022/12/26 00:02:41;;;;;;;21.27;12.10;;;8.60;99.90;;;;;;5258853;28;20181;-54
2022/12/26 00:05:12;;;;;;;18.90;10.30;;;8.50;99.90;;;;;;5271354;28;20450;-53
2022/12/26 00:07:42;;;;;;;18.37;10.30;;;8.50;99.90;;;;;;5262242;28;20402;-54
2022/12/26 00:10:13;;;;;;;31.73;13.53;;;8.50;99.90;;;;;;5254287;28;20205;-54
2022/12/26 00:12:44;;;;;;;11.63;9.00;;;8.60;99.90;;;;;;5265759;28;20210;-54
2022/12/26 00:15:14;;;;;;;22.77;11.43;;;8.60;99.90;;;;;;5268199;28;20543;-55
2022/12/26 00:17:45;;;;;;;20.83;11.17;;;8.50;99.90;;;;;;5270356;28;20204;-55
2022/12/26 00:20:16;;;;;;;29.63;15.03;;;8.60;99.90;;;;;;5257200;28;20217;-54
2022/12/26 00:22:46;;;;;;;23.67;11.47;;;8.60;99.90;;;;;;5259751;28;20189;-53
2022/12/26 00:25:17;;;;;;;21.97;9.03;;;8.60;99.90;;;;;;5251018;28;20527;-54
2022/12/26 00:27:48;;;;;;;26.40;12.73;;;8.60;99.90;;;;;;5261002;28;20307;-54
2022/12/26 00:30:18;;;;;;;19.40;9.40;;;8.60;99.90;;;;;;5255592;28;20704;-52
2022/12/26 00:32:49;;;;;;;11.80;9.53;;;8.60;99.90;;;;;;5267100;28;20178;-53
2022/12/26 00:35:20;;;;;;;21.87;11.60;;;8.60;99.90;;;;;;5266558;28;20174;-55
2022/12/26 00:37:51;;;;;;;21.10;9.97;;;8.60;99.90;;;;;;5259005;28;20229;-54
2022/12/26 00:40:21;;;;;;;20.37;9.53;;;8.60;99.90;;;;;;5261805;28;20435;-54
2022/12/26 00:42:52;;;;;;;21.53;11.93;;;8.60;99.90;;;;;;5249363;28;20221;-54
2022/12/26 00:45:23;;;;;;;16.73;9.67;;;8.60;99.90;;;;;;5255435;28;20213;-53
2022/12/26 00:47:53;;;;;;;18.03;9.77;;;8.70;99.90;;;;;;5265884;28;20205;-54
2022/12/26 00:50:24;;;;;;;18.30;9.77;;;8.70;99.90;;;;;;5255545;28;20212;-54
2022/12/26 00:52:55;;;;;;;21.97;12.40;;;8.80;99.90;;;;;;5266223;28;20205;-53
2022/12/26 00:55:26;;;;;;;16.37;10.50;;;8.70;99.90;;;;;;5268822;28;20248;-54
2022/12/26 00:57:56;;;;;;;13.17;7.80;;;8.70;99.90;;;;;;5265256;28;20475;-54
2022/12/26 01:00:27;;;;;;;20.73;10.57;;;8.70;99.90;;;;;;5254215;28;20174;-54
2022/12/26 01:02:58;;;;;;;18.43;10.03;;;8.80;99.90;;;;;;5258022;28;20239;-54
2022/12/26 01:05:29;;;;;;;27.13;10.67;;;8.70;99.90;;;;;;5266597;28;20567;-54
2022/12/26 01:07:59;;;;;;;24.23;11.80;;;8.80;99.90;;;;;;5265015;28;20249;-53
2022/12/26 01:10:30;;;;;;;19.73;10.27;;;8.90;99.90;;;;;;5267102;28;20209;-54
2022/12/26 01:13:01;;;;;;;24.60;9.57;;;8.80;99.90;;;;;;5258719;28;20651;-54
2022/12/26 01:15:31;;;;;;;16.63;7.77;;;8.80;99.90;;;;;;5246565;28;20178;-54
2022/12/26 01:18:02;;;;;;;16.73;9.07;;;8.80;99.90;;;;;;5249510;28;20198;-54
2022/12/26 01:20:33;;;;;;;13.03;8.03;;;8.80;99.90;;;;;;5259221;28;20200;-53
2022/12/26 01:23:04;;;;;;;28.00;10.97;;;8.80;99.90;;;;;;5265264;28;20447;-53
2022/12/26 01:25:34;;;;;;;30.27;11.67;;;8.80;99.90;;;;;;5261021;28;20208;-55
2022/12/26 01:28:05;;;;;;;15.93;9.37;;;8.90;99.90;;;;;;5259645;28;20198;-54
2022/12/26 01:30:36;;;;;;;19.93;11.40;;;8.80;99.90;;;;;;5256091;28;20209;-52
2022/12/26 01:33:07;;;;;;;18.30;11.13;;;8.80;99.90;;;;;;5263698;28;20178;-54
2022/12/26 01:35:37;;;;;;;15.90;8.83;;;8.80;99.90;;;;;;5256214;28;20420;-54
2022/12/26 01:38:08;;;;;;;12.97;8.33;;;8.80;99.90;;;;;;5265584;28;20194;-54
2022/12/26 01:40:42;;;;;;;15.00;7.80;;;8.80;99.90;;;;;;5256524;28;20178;-53
2022/12/26 01:43:14;;;;;;;31.63;11.90;;;8.80;99.90;;;;;;5270918;28;20281;-51
2022/12/26 01:45:49;;;;;;;15.83;8.40;;;8.80;99.90;;;;;;5257702;28;20431;-54
2022/12/26 01:48:24;;;;;;;18.77;10.47;;;8.90;99.90;;;;;;5263591;28;20987;-53
2022/12/26 01:51:00;;;;;;;10.27;8.00;;;8.90;99.90;;;;;;5266495;28;20459;-53
2022/12/26 01:53:40;;;;;;;16.30;9.57;;;8.90;99.90;;;;;;5256870;28;20430;-53
2022/12/26 01:56:15;;;;;;;10.43;7.30;;;8.90;99.90;;;;;;5269286;28;20932;-54
2022/12/26 01:58:51;;;;;;;11.20;8.23;;;8.80;99.90;;;;;;5255230;28;20446;-51
2022/12/26 02:01:27;;;;;;;16.23;9.40;;;8.80;99.90;;;;;;5258802;28;20920;-50
2022/12/26 02:06:49;;;;;;;16.03;9.93;;;8.80;99.90;;;;;;5265164;28;20438;-53
2022/12/26 02:09:20;;;;;;;15.93;8.90;;;8.70;99.90;;;;;;5255737;28;20432;-50
2022/12/26 02:12:09;;;;;;;12.83;7.77;;;8.60;99.90;;;;;;5238384;28;20460;-51
2022/12/26 02:14:41;;;;;;;10.80;7.63;;;8.70;99.90;;;;;;5257997;28;20627;-51
2022/12/26 02:17:12;;;;;;;10.60;8.63;;;8.70;99.90;;;;;;5259601;28;20448;-53
2022/12/26 02:20:24;;;;;;;14.90;9.43;;;8.60;99.90;;;;;;5263604;28;20769;-51
2022/12/26 02:23:16;;;;;;;11.33;7.57;;;8.70;99.90;;;;;;5204610;28;20493;-50
2022/12/26 02:26:21;;;;;;;21.03;11.17;;;8.80;99.90;;;;;;5263916;28;20495;-52
2022/12/26 02:29:40;;;;;;;26.13;12.70;;;8.80;99.90;;;;;;5263089;28;20427;-51
2022/12/26 02:32:31;;;;;;;14.37;8.83;;;8.80;99.90;;;;;;5259918;28;20971;-50
2022/12/26 02:35:25;;;;;;;12.10;8.67;;;8.80;99.90;;;;;;5223464;28;20442;-51
2022/12/26 02:38:17;;;;;;;20.73;9.97;;;8.80;99.90;;;;;;5256540;28;20447;-53
2022/12/26 02:41:10;;;;;;;12.13;8.47;;;8.90;99.90;;;;;;5265508;28;20435;-52
2022/12/26 02:47:08;;;;;;;16.10;9.30;;;8.90;99.90;;;;;;5266313;28;20429;-52
2022/12/26 03:13:27;;;;;;;14.30;8.07;;;9.00;99.90;;;;;;5266162;28;20420;-52
2022/12/26 03:19:10;;;;;;;17.77;8.27;;;8.80;99.90;;;;;;5263415;28;20582;-53
2022/12/26 03:21:44;;;;;;;17.00;9.03;;;8.80;99.90;;;;;;5258720;28;20428;-52
2022/12/26 03:24:16;;;;;;;18.23;10.60;;;8.90;99.90;;;;;;5265080;28;20469;-53
2022/12/26 03:26:52;;;;;;;20.73;12.40;;;8.90;99.90;;;;;;5264590;28;20527;-52
2022/12/26 03:32:12;;;;;;;20.20;9.93;;;8.90;99.90;;;;;;5264039;28;20813;-52
2022/12/26 03:34:43;;;;;;;15.77;9.57;;;8.90;99.90;;;;;;5261199;28;20420;-51
2022/12/26 03:37:23;;;;;;;21.83;11.80;;;8.90;99.90;;;;;;5270093;28;20343;-52
2022/12/26 04:20:28;;;;;;;15.33;9.00;;;9.20;99.90;;;;;;5250662;28;20479;-52
2022/12/26 04:46:23;;;;;;;14.27;9.30;;;9.10;99.90;;;;;;5261777;28;20481;-52
2022/12/26 04:51:44;;;;;;;14.10;8.20;;;9.10;99.90;;;;;;5257100;28;20979;-52
2022/12/26 04:54:14;;;;;;;19.73;9.60;;;9.10;99.90;;;;;;5259186;28;20432;-52
2022/12/26 04:56:45;;;;;;;20.23;9.40;;;9.20;99.90;;;;;;5255419;28;20181;-52
2022/12/26 04:59:17;;;;;;;21.83;10.63;;;9.20;99.90;;;;;;5259333;28;20210;-53
2022/12/26 05:10:25;;;;;;;20.73;9.87;;;9.30;99.90;;;;;;5260161;28;20493;-52
2022/12/26 05:12:56;;;;;;;15.93;9.53;;;9.30;99.90;;;;;;5252933;28;20439;-53
2022/12/26 05:15:27;;;;;;;18.13;9.80;;;9.20;99.90;;;;;;5249411;28;20478;-53
2022/12/26 05:29:15;;;;;;;10.50;8.00;;;9.30;99.90;;;;;;5248254;28;20471;-54
2022/12/26 05:31:45;;;;;;;17.43;9.53;;;9.20;99.90;;;;;;5241153;28;20876;-50
2022/12/26 05:34:19;;;;;;;14.67;9.63;;;9.30;99.90;;;;;;5256903;28;20185;-49
2022/12/26 05:36:55;;;;;;;17.97;9.50;;;9.30;99.90;;;;;;5274770;28;20176;-51
2022/12/26 05:39:26;;;;;;;17.70;10.20;;;9.30;99.90;;;;;;5264039;28;20446;-49
2022/12/26 05:41:56;;;;;;;11.53;8.13;;;9.30;99.90;;;;;;5271838;28;20436;-50
2022/12/26 05:44:27;;;;;;;20.67;10.17;;;9.30;99.90;;;;;;5255249;28;20258;-50
2022/12/26 05:46:57;;;;;;;12.40;7.50;;;9.30;99.90;;;;;;5261174;28;20189;-52
2022/12/26 05:49:28;;;;;;;8.23;6.43;;;9.40;99.90;;;;;;5260003;28;20190;-51
2022/12/26 05:51:59;;;;;;;11.37;8.17;;;9.40;99.90;;;;;;5266873;28;20269;-50
2022/12/26 05:54:29;;;;;;;9.73;6.90;;;9.30;99.90;;;;;;5269833;28;20189;-52
2022/12/26 05:57:00;;;;;;;15.70;8.23;;;9.40;99.90;;;;;;5255772;28;20182;-51
2022/12/26 05:59:31;;;;;;;28.33;9.70;;;9.40;99.90;;;;;;5265895;28;20194;-51
2022/12/26 06:02:01;;;;;;;13.43;7.87;;;9.30;99.90;;;;;;5257076;28;20607;-52
2022/12/26 06:04:33;;;;;;;9.60;6.70;;;9.30;99.90;;;;;;5263152;28;20630;-50
2022/12/26 06:07:04;;;;;;;8.77;6.87;;;9.40;99.90;;;;;;5268769;28;20192;-50
2022/12/26 06:09:34;;;;;;;10.57;7.30;;;9.40;99.90;;;;;;5259705;28;20439;-52
2022/12/26 06:12:05;;;;;;;13.23;8.97;;;9.40;99.90;;;;;;5264454;28;20202;-53
2022/12/26 06:14:36;;;;;;;11.50;7.20;;;9.30;99.90;;;;;;5268399;28;20178;-50
2022/12/26 06:17:06;;;;;;;12.77;7.70;;;9.30;99.90;;;;;;5269029;28;20276;-50
2022/12/26 06:19:37;;;;;;;18.80;8.43;;;9.30;99.90;;;;;;5255395;28;20217;-50
2022/12/26 06:22:08;;;;;;;16.87;8.30;;;9.30;99.90;;;;;;5258005;28;20201;-53
2022/12/26 06:24:38;;;;;;;14.07;8.57;;;9.30;99.90;;;;;;5268748;28;20197;-51
2022/12/26 06:27:09;;;;;;;11.43;8.43;;;9.30;99.90;;;;;;5271474;28;20285;-52
2022/12/26 06:29:40;;;;;;;13.27;7.70;;;9.30;99.90;;;;;;5266095;28;20272;-50
2022/12/26 06:32:10;;;;;;;6.57;5.77;;;9.30;99.90;;;;;;5262244;28;20217;-50
2022/12/26 06:34:41;;;;;;;15.00;8.23;;;9.30;99.90;;;;;;5268394;28;20558;-50
2022/12/26 06:37:12;;;;;;;14.13;7.87;;;9.30;99.90;;;;;;5262793;28;20225;-51
2022/12/26 06:39:42;;;;;;;8.30;6.13;;;9.30;99.90;;;;;;5269843;28;20177;-50
2022/12/26 06:42:13;;;;;;;15.27;7.47;;;9.20;99.90;;;;;;5269303;28;20252;-49
2022/12/26 06:44:44;;;;;;;8.67;6.50;;;9.30;99.90;;;;;;5269578;28;20318;-52
2022/12/26 06:47:14;;;;;;;19.93;9.40;;;9.30;99.90;;;;;;5254641;28;20239;-50
2022/12/26 06:49:45;;;;;;;13.00;6.57;;;9.20;99.90;;;;;;5270295;28;20177;-50
2022/12/26 06:52:16;;;;;;;13.93;7.70;;;9.20;99.90;;;;;;5270041;28;20201;-51
2022/12/26 06:54:46;;;;;;;12.50;7.60;;;9.30;99.90;;;;;;5266677;28;20274;-51
2022/12/26 06:57:17;;;;;;;10.33;7.90;;;9.30;99.90;;;;;;5268153;28;20228;-51
2022/12/26 06:59:48;;;;;;;6.23;5.57;;;9.30;99.90;;;;;;5263289;28;20181;-53
2022/12/26 07:02:18;;;;;;;18.90;9.57;;;9.30;99.90;;;;;;5268860;28;20213;-50
2022/12/26 07:04:49;;;;;;;16.57;8.50;;;9.30;99.90;;;;;;5265998;28;20259;-53
2022/12/26 07:07:20;;;;;;;6.47;5.90;;;9.30;99.90;;;;;;5267103;28;20201;-51
2022/12/26 07:09:51;;;;;;;16.93;8.07;;;9.30;99.90;;;;;;5269817;28;20883;-53
2022/12/26 07:12:21;;;;;;;15.70;8.40;;;9.30;99.90;;;;;;5256296;28;20214;-51
2022/12/26 07:14:52;;;;;;;14.03;6.47;;;9.30;99.90;;;;;;5272039;28;20201;-52
2022/12/26 07:17:23;;;;;;;15.27;7.53;;;9.30;99.90;;;;;;5272800;28;20202;-51
2022/12/26 07:19:53;;;;;;;13.73;7.23;;;9.30;99.90;;;;;;5283550;28;20173;-51
2022/12/26 07:22:24;;;;;;;18.53;9.50;;;9.30;99.90;;;;;;5268519;28;20279;-51
2022/12/26 07:24:55;;;;;;;10.53;7.10;;;9.30;99.90;;;;;;5266857;28;20193;-52
2022/12/26 07:27:25;;;;;;;11.80;7.97;;;9.30;99.90;;;;;;5273975;28;20229;-50
2022/12/26 07:29:56;;;;;;;17.37;8.87;;;9.30;99.90;;;;;;5254998;28;20246;-51
2022/12/26 07:32:27;;;;;;;11.47;7.20;;;9.30;99.90;;;;;;5262732;28;20266;-50
2022/12/26 07:34:57;;;;;;;9.07;6.77;;;9.30;99.90;;;;;;5272920;28;20174;-54
2022/12/26 07:37:28;;;;;;;11.60;7.00;;;9.30;99.90;;;;;;5272876;28;20206;-50
2022/12/26 07:39:59;;;;;;;17.53;8.50;;;9.30;99.90;;;;;;5265768;28;20325;-52
2022/12/26 07:42:29;;;;;;;20.87;9.27;;;9.30;99.90;;;;;;5266444;28;20193;-52
2022/12/26 07:45:00;;;;;;;15.27;8.33;;;9.40;99.90;;;;;;5270688;28;20221;-52
2022/12/26 07:47:31;;;;;;;15.27;7.70;;;9.40;99.90;;;;;;5254341;28;20218;-52
2022/12/26 07:50:01;;;;;;;18.27;9.50;;;9.30;99.90;;;;;;5254313;28;20188;-50
2022/12/26 07:52:32;;;;;;;27.10;10.90;;;9.40;99.90;;;;;;5261752;28;20239;-52
2022/12/26 07:55:03;;;;;;;14.90;8.40;;;9.40;99.90;;;;;;5270768;28;20264;-49
2022/12/26 07:57:34;;;;;;;9.00;7.20;;;9.40;99.90;;;;;;5266053;28;20270;-50
2022/12/26 08:00:05;;;;;;;19.33;9.53;;;9.40;99.90;;;;;;5263487;28;20511;-52
2022/12/26 08:02:36;;;;;;;18.00;10.10;;;9.50;99.90;;;;;;5269647;28;20189;-51
2022/12/26 08:05:07;;;;;;;12.43;7.93;;;9.50;99.90;;;;;;5270646;28;20435;-51
2022/12/26 08:07:37;;;;;;;11.70;7.50;;;9.50;99.90;;;;;;5262706;28;20288;-52
2022/12/26 08:10:08;;;;;;;14.30;10.03;;;9.50;99.90;;;;;;5267062;28;20185;-53
2022/12/26 08:12:39;;;;;;;8.60;6.53;;;9.50;99.90;;;;;;5264358;28;20638;-50
2022/12/26 08:15:13;;;;;;;17.60;9.50;;;9.50;99.90;;;;;;5264342;28;20468;-50
2022/12/26 08:17:44;;;;;;;19.73;9.40;;;9.60;99.90;;;;;;5266345;28;20193;-52
2022/12/26 08:20:14;;;;;;;12.63;7.80;;;9.50;99.90;;;;;;5269795;28;20419;-52
2022/12/26 08:22:45;;;;;;;13.43;7.80;;;9.50;99.90;;;;;;5270363;28;20182;-51
2022/12/26 08:25:16;;;;;;;19.00;9.90;;;9.50;99.90;;;;;;5270405;28;20182;-51
2022/12/26 08:27:46;;;;;;;12.67;8.00;;;9.60;99.90;;;;;;5270895;28;20205;-51
2022/12/26 08:30:17;;;;;;;18.80;9.13;;;9.50;99.90;;;;;;5266833;28;20273;-52
2022/12/26 08:32:50;;;;;;;14.73;7.93;;;9.60;99.90;;;;;;5265331;28;20180;-52
2022/12/26 08:35:20;;;;;;;20.50;8.67;;;9.50;99.90;;;;;;5256488;28;20182;-50
2022/12/26 08:37:51;;;;;;;12.10;7.10;;;9.60;99.90;;;;;;5267792;28;20526;-52
2022/12/26 08:40:22;;;;;;;11.43;7.20;;;9.60;99.90;;;;;;5271530;28;20726;-50
2022/12/26 08:42:52;;;;;;;13.87;7.40;;;9.70;99.90;;;;;;5271342;28;20170;-50
2022/12/26 08:45:23;;;;;;;10.10;6.43;;;9.80;99.90;;;;;;5267059;28;20186;-50
2022/12/26 08:47:54;;;;;;;21.43;8.90;;;9.70;99.90;;;;;;5266622;28;20198;-52
2022/12/26 08:50:25;;;;;;;5.67;5.17;;;9.70;99.90;;;;;;5260917;28;20500;-51
2022/12/26 08:52:56;;;;;;;7.13;6.23;;;9.80;99.90;;;;;;5259500;28;20189;-51
2022/12/26 08:55:26;;;;;;;13.70;6.50;;;9.80;99.90;;;;;;5263549;28;20424;-50
2022/12/26 08:57:57;;;;;;;11.53;6.70;;;9.80;99.90;;;;;;5268711;28;20217;-53
2022/12/26 09:00:28;;;;;;;13.80;6.87;;;9.80;99.90;;;;;;5269008;28;20178;-54
2022/12/26 09:02:58;;;;;;;7.67;4.73;;;9.70;99.90;;;;;;5267835;28;20189;-51
2022/12/26 09:05:30;;;;;;;7.20;4.97;;;9.80;99.90;;;;;;5266006;28;20196;-52
2022/12/26 09:08:01;;;;;;;6.47;4.27;;;9.70;99.90;;;;;;5268558;28;20603;-51
2022/12/26 09:10:32;;;;;;;8.93;5.10;;;9.80;99.90;;;;;;5259423;28;20459;-52
2022/12/26 09:13:03;;;;;;;11.03;5.27;;;9.80;99.90;;;;;;5263987;28;20178;-51
2022/12/26 09:15:33;;;;;;;9.20;5.60;;;9.80;99.90;;;;;;5267881;28;20447;-50
2022/12/26 09:18:04;;;;;;;8.03;4.97;;;9.70;99.90;;;;;;5269004;28;20550;-52
2022/12/26 09:20:35;;;;;;;4.60;4.20;;;9.80;99.90;;;;;;5268467;28;20265;-50
2022/12/26 09:23:09;;;;;;;16.93;7.27;;;9.80;99.90;;;;;;5267637;28;20197;-52
2022/12/26 09:25:40;;;;;;;11.97;5.77;;;9.80;99.90;;;;;;5267464;28;20192;-51
2022/12/26 09:28:11;;;;;;;19.23;7.73;;;9.90;99.90;;;;;;5265940;28;20455;-53
2022/12/26 09:30:43;;;;;;;5.17;4.53;;;9.90;99.90;;;;;;5263014;28;20206;-51
2022/12/26 09:33:13;;;;;;;8.47;5.60;;;10.00;99.90;;;;;;5262442;28;20296;-52
2022/12/26 09:35:44;;;;;;;10.07;6.63;;;10.00;99.90;;;;;;5262776;28;20424;-51
2022/12/26 09:38:15;;;;;;;20.53;7.90;;;10.00;99.90;;;;;;5268642;28;20200;-52
2022/12/26 09:41:06;;;;;;;10.33;5.60;;;10.00;99.90;;;;;;5267187;28;20190;-53
2022/12/26 09:44:02;;;;;;;5.63;5.07;;;10.00;99.90;;;;;;5246330;28;20552;-52
2022/12/26 09:46:54;;;;;;;5.83;5.43;;;10.00;99.90;;;;;;5266477;28;20553;-51
2022/12/26 09:49:39;;;;;;;10.77;6.43;;;10.10;99.90;;;;;;5259124;28;20526;-51
2022/12/26 09:52:15;;;;;;;7.97;5.50;;;10.00;99.90;;;;;;5268791;28;20471;-52
2022/12/26 09:55:02;;;;;;;9.27;6.00;;;10.00;99.90;;;;;;5267230;28;20423;-53
2022/12/26 09:57:42;;;;;;;6.97;5.40;;;10.10;99.90;;;;;;5253975;28;21012;-51
2022/12/26 10:00:29;;;;;;;7.67;5.90;;;10.20;99.90;;;;;;5261682;28;20428;-51
2022/12/26 10:03:00;;;;;;;7.07;5.37;;;10.20;99.90;;;;;;5257350;28;20411;-51
2022/12/26 10:05:40;;;;;;;5.97;5.33;;;10.10;99.90;;;;;;5264385;28;20411;-52
2022/12/26 10:08:26;;;;;;;20.10;7.60;;;10.10;99.90;;;;;;5264190;28;20554;-54
2022/12/26 10:11:09;;;;;;;8.13;5.83;;;10.10;99.90;;;;;;5256592;28;20469;-54
2022/12/26 10:13:53;;;;;;;6.40;5.30;;;10.20;99.90;;;;;;5266698;28;20443;-55
2022/12/26 10:16:35;;;;;;;6.97;5.90;;;10.10;99.90;;;;;;5249307;28;20931;-54
2022/12/26 10:19:26;;;;;;;7.97;6.13;;;10.00;99.90;;;;;;5256538;28;20967;-55
2022/12/26 10:22:06;;;;;;;6.87;5.40;;;10.10;99.90;;;;;;5265383;28;20791;-52
2022/12/26 10:24:39;;;;;;;4.97;4.57;;;10.20;99.90;;;;;;5263289;28;20788;-53
2022/12/26 10:27:14;;;;;;;11.67;5.97;;;10.20;99.90;;;;;;5268446;28;20479;-54
2022/12/26 10:29:51;;;;;;;5.73;4.90;;;10.20;99.90;;;;;;5265019;28;20422;-54
2022/12/26 10:32:37;;;;;;;11.23;5.03;;;10.20;99.90;;;;;;5259076;28;20462;-53
2022/12/26 10:35:36;;;;;;;4.97;4.40;;;10.20;99.90;;;;;;5266489;28;20507;-53
2022/12/26 10:38:39;;;;;;;5.90;4.20;;;10.20;99.90;;;;;;5264696;28;20455;-54
2022/12/26 10:41:22;;;;;;;4.27;3.97;;;10.20;99.90;;;;;;5270614;28;20431;-55
2022/12/26 10:43:53;;;;;;;6.60;4.57;;;10.00;99.90;;;;;;5270786;28;20435;-54
2022/12/26 10:46:39;;;;;;;3.70;3.50;;;10.00;99.90;;;;;;5266153;28;20530;-53
2022/12/26 10:49:12;;;;;;;4.10;3.80;;;10.10;99.90;;;;;;5265344;28;20460;-52
2022/12/26 10:51:43;;;;;;;3.63;3.43;;;10.10;99.90;;;;;;5265640;28;20908;-53
2022/12/26 10:54:17;;;;;;;3.40;3.20;;;10.10;99.90;;;;;;5261218;28;20442;-53
2022/12/26 10:56:50;;;;;;;5.93;4.33;;;10.10;99.90;;;;;;5262009;28;20556;-54
2022/12/26 10:59:43;;;;;;;3.80;3.50;;;10.10;99.90;;;;;;5270807;28;20917;-52
2022/12/26 11:02:28;;;;;;;4.00;3.70;;;10.10;99.90;;;;;;5261148;28;20940;-52
2022/12/26 11:05:11;;;;;;;3.67;3.40;;;10.20;99.90;;;;;;5265003;28;20427;-54
2022/12/26 11:07:50;;;;;;;3.70;3.40;;;10.20;99.90;;;;;;5270440;28;20983;-53
2022/12/26 11:10:25;;;;;;;3.97;3.67;;;10.20;99.90;;;;;;5264691;28;20503;-52
2022/12/26 11:13:01;;;;;;;3.03;2.93;;;10.20;99.90;;;;;;5266062;28;20473;-52
2022/12/26 11:15:39;;;;;;;2.70;2.50;;;10.20;99.90;;;;;;5267438;28;21014;-53
2022/12/26 11:18:46;;;;;;;3.80;3.50;;;10.20;99.90;;;;;;5267279;28;20535;-52
2022/12/26 11:21:17;;;;;;;4.17;3.30;;;10.20;99.90;;;;;;5258725;28;20420;-51
2022/12/26 11:23:51;;;;;;;4.17;3.87;;;10.20;99.90;;;;;;5270556;28;20438;-52
2022/12/26 11:26:25;;;;;;;3.23;3.13;;;10.20;99.90;;;;;;5269699;28;20254;-53
2022/12/26 11:29:18;;;;;;;4.10;3.80;;;10.20;99.90;;;;;;5269391;28;20455;-54
2022/12/26 11:32:00;;;;;;;2.97;2.73;;;10.20;99.90;;;;;;5265747;28;20494;-54
2022/12/26 11:34:36;;;;;;;2.80;2.60;;;10.20;99.90;;;;;;5270471;28;20439;-54
2022/12/26 11:37:25;;;;;;;2.50;2.40;;;10.10;99.90;;;;;;5253526;28;20420;-52
2022/12/26 11:39:57;;;;;;;2.07;2.03;;;10.00;99.90;;;;;;5264657;28;20547;-52
2022/12/26 11:42:28;;;;;;;3.07;2.87;;;10.10;99.90;;;;;;5261188;28;20778;-52
2022/12/26 11:45:02;;;;;;;2.90;2.80;;;10.00;99.90;;;;;;5263702;28;20511;-52
2022/12/26 11:47:33;;;;;;;2.90;2.70;;;10.00;99.90;;;;;;5268193;28;20223;-53
2022/12/26 11:50:16;;;;;;;2.57;2.43;;;10.00;99.90;;;;;;5269721;28;20435;-52
2022/12/26 11:52:54;;;;;;;5.17;2.57;;;10.10;99.90;;;;;;5266515;28;20213;-53
2022/12/26 11:55:37;;;;;;;2.60;2.50;;;10.20;99.90;;;;;;5269608;28;21057;-53
2022/12/26 11:58:07;;;;;;;5.17;2.73;;;10.30;99.90;;;;;;5276769;28;20471;-53
2022/12/26 12:01:01;;;;;;;3.00;2.57;;;10.30;99.90;;;;;;5255175;28;20912;-53
2022/12/26 12:03:35;;;;;;;2.80;2.70;;;10.40;99.90;;;;;;5263283;28;20193;-53
2022/12/26 12:06:21;;;;;;;3.27;2.97;;;10.60;99.90;;;;;;5251156;28;20776;-52
2022/12/26 12:09:28;;;;;;;2.20;2.10;;;10.70;99.90;;;;;;5267531;28;20451;-52
2022/12/26 12:12:02;;;;;;;2.97;2.80;;;10.80;99.90;;;;;;5265864;28;20889;-53
2022/12/26 12:15:00;;;;;;;3.20;2.63;;;10.80;99.90;;;;;;5262793;28;20439;-54
2022/12/26 12:17:52;;;;;;;3.23;2.77;;;10.80;99.90;;;;;;5258787;28;20447;-52
2022/12/26 12:20:25;;;;;;;2.37;2.27;;;10.60;99.90;;;;;;5268624;28;20447;-55
2022/12/26 12:23:34;;;;;;;2.50;2.20;;;10.60;99.90;;;;;;5268720;28;20436;-52
2022/12/26 12:26:20;;;;;;;3.27;3.17;;;10.50;99.90;;;;;;5267694;28;20435;-52
2022/12/26 12:29:06;;;;;;;3.20;2.90;;;10.40;99.90;;;;;;5257991;28;20463;-55
2022/12/26 12:32:06;;;;;;;3.70;3.50;;;10.40;99.90;;;;;;5264808;28;20971;-52
2022/12/26 12:35:03;;;;;;;3.20;3.00;;;10.40;99.90;;;;;;5263059;28;20468;-53
2022/12/26 12:37:48;;;;;;;3.20;3.10;;;10.40;99.90;;;;;;5265053;28;20821;-54
2022/12/26 12:40:30;;;;;;;3.47;3.37;;;10.40;99.90;;;;;;5254736;28;20428;-53
2022/12/26 12:43:17;;;;;;;3.13;2.83;;;10.40;99.90;;;;;;5260347;28;20454;-52
2022/12/26 12:46:10;;;;;;;4.93;3.83;;;10.40;99.90;;;;;;5267234;28;20432;-51
2022/12/26 12:48:47;;;;;;;5.83;4.10;;;10.30;99.90;;;;;;5268586;28;20424;-54
2022/12/26 12:51:33;;;;;;;4.27;3.97;;;10.30;99.90;;;;;;5266628;28;20597;-52
2022/12/26 12:54:22;;;;;;;11.73;7.87;;;10.40;99.90;;;;;;5265487;28;20799;-52
2022/12/26 12:57:30;;;;;;;12.60;8.23;;;10.50;99.90;;;;;;5262397;28;20443;-53
2022/12/26 13:00:12;;;;;;;11.97;5.70;;;10.60;99.90;;;;;;5259650;28;20441;-52
2022/12/26 13:02:50;;;;;;;8.20;5.70;;;10.60;99.90;;;;;;5266240;28;20440;-52
2022/12/26 13:05:27;;;;;;;6.73;5.83;;;10.60;99.90;;;;;;5262350;28;20443;-53
2022/12/26 13:08:27;;;;;;;8.17;6.50;;;10.60;99.90;;;;;;5268608;28;20517;-52
2022/12/26 13:11:04;;;;;;;7.37;5.43;;;10.60;99.90;;;;;;5258585;28;20549;-52
2022/12/26 13:13:58;;;;;;;14.50;7.43;;;10.70;99.90;;;;;;5262931;28;20900;-53
2022/12/26 13:16:42;;;;;;;7.87;5.70;;;10.70;99.90;;;;;;5234720;28;20433;-52
2022/12/26 13:19:24;;;;;;;6.93;4.10;;;10.70;99.90;;;;;;5256707;28;20452;-52
2022/12/26 13:22:01;;;;;;;3.37;3.17;;;10.60;99.90;;;;;;5265771;28;20423;-54
2022/12/26 13:24:44;;;;;;;3.30;3.13;;;10.50;99.90;;;;;;5255916;28;20412;-53
2022/12/26 13:27:20;;;;;;;5.50;4.53;;;10.40;99.90;;;;;;5256613;28;20535;-53
2022/12/26 13:29:51;;;;;;;4.20;3.90;;;10.30;99.90;;;;;;5266718;28;20941;-53
2022/12/26 13:32:24;;;;;;;4.30;4.00;;;10.10;99.90;;;;;;5267983;28;20809;-53
2022/12/26 13:34:57;;;;;;;4.10;3.73;;;10.10;99.90;;;;;;5260671;28;20444;-53
2022/12/26 13:37:31;;;;;;;3.10;2.90;;;10.10;99.90;;;;;;5262865;28;20448;-54
2022/12/26 13:40:11;;;;;;;4.10;3.80;;;10.10;99.90;;;;;;5263234;28;20424;-52
2022/12/26 13:45:36;;;;;;;5.20;3.60;;;10.00;99.90;;;;;;5253991;28;20490;-52
2022/12/26 13:48:16;;;;;;;3.40;3.20;;;10.00;99.90;;;;;;5267083;28;20456;-52
2022/12/26 13:50:51;;;;;;;3.47;3.27;;;9.90;99.90;;;;;;5278881;28;20470;-51
2022/12/26 13:53:24;;;;;;;3.77;2.97;;;9.80;99.90;;;;;;5266594;28;20431;-53
2022/12/26 13:55:58;;;;;;;2.77;2.67;;;9.80;99.90;;;;;;5266481;28;20435;-51
2022/12/26 13:58:39;;;;;;;6.50;3.40;;;9.60;99.90;;;;;;5268037;28;20478;-51
2022/12/26 14:01:47;;;;;;;4.83;4.00;;;9.60;99.90;;;;;;5265027;28;20965;-49
2022/12/26 14:04:32;;;;;;;9.77;6.27;;;9.50;99.90;;;;;;5266978;28;20431;-49
2022/12/26 14:07:26;;;;;;;3.30;3.00;;;9.60;99.90;;;;;;5267714;28;20887;-51
2022/12/26 14:10:02;;;;;;;3.90;3.80;;;9.70;99.90;;;;;;5260117;28;20507;-51
2022/12/26 14:13:05;;;;;;;4.50;3.70;;;9.80;99.90;;;;;;5253365;28;20479;-50
2022/12/26 14:16:06;;;;;;;4.00;3.70;;;9.90;99.90;;;;;;5270579;28;20519;-50
2022/12/26 14:18:50;;;;;;;3.90;3.60;;;9.90;99.90;;;;;;5270449;28;20489;-49
2022/12/26 14:21:42;;;;;;;6.00;3.30;;;10.00;99.90;;;;;;5266404;28;20411;-50
2022/12/26 14:24:29;;;;;;;3.30;3.10;;;9.90;99.90;;;;;;5273432;28;20503;-49
2022/12/26 14:27:38;;;;;;;4.30;3.90;;;9.80;99.90;;;;;;5272414;28;20789;-49
2022/12/26 14:30:38;;;;;;;3.53;3.43;;;9.80;99.90;;;;;;5269727;28;20487;-51
2022/12/26 14:33:28;;;;;;;4.10;3.70;;;9.70;99.90;;;;;;5269850;28;20483;-50
2022/12/26 14:36:21;;;;;;;4.17;3.87;;;9.50;99.90;;;;;;5273563;28;20769;-53
2022/12/26 14:39:25;;;;;;;4.23;3.93;;;9.40;99.90;;;;;;5273262;28;20459;-49
2022/12/26 14:44:55;;;;;;;4.23;4.00;;;9.20;99.90;;;;;;5264623;28;20418;-50
2022/12/26 14:47:37;;;;;;;4.67;4.27;;;9.10;99.90;;;;;;5269739;28;20441;-53
2022/12/26 14:50:39;;;;;;;6.47;4.70;;;9.10;99.90;;;;;;5271976;28;20434;-51
2022/12/26 14:53:31;;;;;;;3.90;3.40;;;9.00;99.90;;;;;;5269809;28;20841;-50
2022/12/26 14:56:12;;;;;;;8.53;4.37;;;8.90;99.90;;;;;;5272701;28;20432;-50
2022/12/26 14:58:51;;;;;;;4.47;4.17;;;8.80;99.90;;;;;;5276515;28;20478;-50
2022/12/26 15:01:22;;;;;;;3.50;3.20;;;8.90;99.90;;;;;;5271155;28;20904;-50
2022/12/26 15:03:58;;;;;;;4.57;4.07;;;9.10;99.90;;;;;;5273732;28;20410;-50
2022/12/26 15:06:51;;;;;;;3.67;3.50;;;9.20;99.90;;;;;;5271793;28;20201;-51
2022/12/26 15:09:40;;;;;;;3.53;3.17;;;9.40;99.90;;;;;;5272040;28;20485;-50
2022/12/26 15:12:26;;;;;;;3.03;2.80;;;9.40;99.90;;;;;;5271869;28;20490;-51
2022/12/26 15:15:02;;;;;;;5.80;3.00;;;9.50;99.90;;;;;;5267733;28;20431;-50
2022/12/26 15:17:43;;;;;;;3.90;3.53;;;9.60;99.90;;;;;;5272821;28;20810;-50
2022/12/26 15:20:32;;;;;;;4.50;4.10;;;9.70;99.90;;;;;;5268584;28;20424;-50
2022/12/26 15:23:22;;;;;;;4.33;3.73;;;9.70;99.90;;;;;;5251938;28;20485;-50
2022/12/26 15:26:32;;;;;;;3.17;2.87;;;9.70;99.90;;;;;;5269617;28;20432;-50
2022/12/26 15:29:29;;;;;;;5.13;2.80;;;9.70;99.90;;;;;;5265597;28;20967;-52
2022/12/26 15:32:32;;;;;;;4.03;2.87;;;9.70;99.90;;;;;;5271167;28;20456;-50
2022/12/26 15:35:29;;;;;;;2.70;2.60;;;9.70;99.90;;;;;;5266083;28;20425;-52
2022/12/26 15:38:16;;;;;;;3.77;3.47;;;9.60;99.90;;;;;;5265117;28;20787;-52
2022/12/26 15:41:11;;;;;;;4.67;3.10;;;9.40;99.90;;;;;;5259913;28;20523;-51
2022/12/26 15:44:08;;;;;;;5.03;3.30;;;9.30;99.90;;;;;;5257218;28;20451;-50
2022/12/26 15:46:50;;;;;;;4.27;3.87;;;9.10;99.90;;;;;;5267292;28;20806;-50
2022/12/26 15:49:26;;;;;;;4.10;3.00;;;8.90;99.90;;;;;;5265976;28;20439;-51